createdAt,value
2018-09-18T00:00:31.466Z,75.63
2018-09-18T00:03:00.188Z,74.98
2018-09-18T00:05:28.898Z,75.02
2018-09-18T00:07:57.590Z,75.52
2018-09-18T00:10:26.277Z,75.39
2018-09-18T00:12:55.049Z,75.51
2018-09-18T00:15:23.673Z,75.28
2018-09-18T00:17:52.342Z,75.57
2018-09-18T00:20:21.038Z,75.93
2018-09-18T00:22:49.799Z,76.11
2018-09-18T00:25:18.463Z,75.87
2018-09-18T00:27:47.182Z,76.12
2018-09-18T00:30:15.989Z,76.29
2018-09-18T00:32:44.625Z,76.05
2018-09-18T00:35:13.350Z,76.41
2018-09-18T00:37:41.967Z,76.37
2018-09-18T00:40:10.592Z,75.61
2018-09-18T00:42:39.285Z,75.85
2018-09-18T00:45:08.004Z,75.59
2018-09-18T00:47:36.700Z,75.15
2018-09-18T00:50:05.610Z,75.15
2018-09-18T00:52:34.371Z,75.31
2018-09-18T00:55:03.021Z,75.59
2018-09-18T00:57:31.771Z,75.80
2018-09-18T01:00:00.385Z,75.64
2018-09-18T01:02:29.436Z,75.65
2018-09-18T01:04:58.208Z,75.89
2018-09-18T01:07:26.953Z,75.48
2018-09-18T01:09:55.606Z,76.24
2018-09-18T01:12:24.385Z,75.79
2018-09-18T01:14:53.149Z,76.14
2018-09-18T01:17:21.843Z,75.95
2018-09-18T01:19:50.569Z,75.41
2018-09-18T01:22:19.263Z,74.99
2018-09-18T01:24:47.952Z,75.63
2018-09-18T01:27:16.626Z,75.36
2018-09-18T01:29:45.373Z,75.45
2018-09-18T01:32:14.029Z,75.80
2018-09-18T01:34:42.732Z,75.94
2018-09-18T01:37:11.411Z,75.58
2018-09-18T01:39:40.117Z,75.90
2018-09-18T01:42:08.810Z,76.20
2018-09-18T01:44:37.482Z,75.98
2018-09-18T01:47:06.176Z,76.32
2018-09-18T01:49:34.807Z,76.09
2018-09-18T01:52:03.460Z,75.71
2018-09-18T01:54:32.167Z,76.24
2018-09-18T01:57:00.886Z,76.87
2018-09-18T01:59:29.575Z,77.01
2018-09-18T02:01:58.207Z,76.25
2018-09-18T02:04:26.848Z,76.72
2018-09-18T02:06:55.475Z,77.14
2018-09-18T02:09:24.091Z,77.05
2018-09-18T02:11:52.707Z,76.61
2018-09-18T02:14:21.332Z,76.79
2018-09-18T02:16:49.971Z,76.60
2018-09-18T02:19:18.611Z,77.37
2018-09-18T02:21:47.232Z,77.02
2018-09-18T02:24:15.902Z,77.17
2018-09-18T02:26:44.584Z,77.51
2018-09-18T02:29:13.221Z,77.74
2018-09-18T02:31:41.860Z,77.83
2018-09-18T02:34:10.508Z,77.88
2018-09-18T02:36:39.156Z,77.91
2018-09-18T02:39:11.034Z,77.17
2018-09-18T02:41:39.716Z,77.15
2018-09-18T02:44:08.424Z,77.28
2018-09-18T02:46:37.121Z,77.40
2018-09-18T02:49:05.792Z,77.80
2018-09-18T02:51:34.447Z,77.27
2018-09-18T02:54:03.082Z,77.94
2018-09-18T02:56:31.706Z,77.36
2018-09-18T02:59:00.349Z,77.28
2018-09-18T03:01:29.022Z,76.84
2018-09-18T03:03:57.691Z,77.52
2018-09-18T03:06:26.351Z,77.79
2018-09-18T03:08:55.012Z,77.89
2018-09-18T03:11:23.668Z,77.54
2018-09-18T03:13:52.336Z,77.80
2018-09-18T03:16:20.984Z,77.69
2018-09-18T03:18:49.618Z,78.00
2018-09-18T03:21:18.305Z,77.91
2018-09-18T03:23:46.967Z,77.93
2018-09-18T03:26:15.630Z,78.32
2018-09-18T03:28:44.261Z,78.61
2018-09-18T03:31:12.947Z,77.95
2018-09-18T03:33:41.610Z,78.00
2018-09-18T03:36:10.242Z,78.13
2018-09-18T03:38:38.888Z,78.47
2018-09-18T03:41:07.696Z,78.49
2018-09-18T03:43:36.339Z,78.57
2018-09-18T03:46:04.934Z,78.68
2018-09-18T03:48:33.873Z,78.04
2018-09-18T03:51:02.544Z,78.59
2018-09-18T03:53:31.247Z,78.21
2018-09-18T03:55:59.872Z,77.93
2018-09-18T03:58:28.511Z,78.64
2018-09-18T04:00:57.148Z,78.31
2018-09-18T04:03:25.797Z,78.37
2018-09-18T04:05:54.462Z,77.99
2018-09-18T04:08:23.072Z,78.10
2018-09-18T04:10:51.707Z,78.64
2018-09-18T04:13:20.398Z,78.81
2018-09-18T04:15:49.503Z,78.61
2018-09-18T04:18:20.728Z,78.48
2018-09-18T04:20:49.371Z,78.36
2018-09-18T04:23:18.041Z,78.42
2018-09-18T04:25:46.646Z,77.95
2018-09-18T04:28:16.388Z,78.04
2018-09-18T04:30:45.112Z,78.05
2018-09-18T04:33:14.127Z,77.44
2018-09-18T04:35:42.828Z,77.67
2018-09-18T04:38:11.493Z,78.57
2018-09-18T04:40:40.174Z,78.00
2018-09-18T04:43:08.863Z,77.64
2018-09-18T04:45:37.807Z,76.86
2018-09-18T04:48:06.829Z,76.98
2018-09-18T04:50:36.045Z,75.43
2018-09-18T04:53:04.710Z,74.79
2018-09-18T04:55:33.350Z,74.50
2018-09-18T04:58:01.995Z,74.04
2018-09-18T05:00:30.639Z,72.58
2018-09-18T05:02:59.323Z,72.21
2018-09-18T05:05:28.011Z,70.72
2018-09-18T05:07:56.723Z,69.14
2018-09-18T05:10:25.368Z,67.99
2018-09-18T05:12:53.987Z,68.66
2018-09-18T05:15:22.640Z,67.32
2018-09-18T05:17:51.265Z,66.35
2018-09-18T05:20:19.947Z,66.53
2018-09-18T05:22:48.623Z,67.79
2018-09-18T05:25:17.269Z,67.53
2018-09-18T05:27:45.908Z,66.63
2018-09-18T05:30:14.544Z,65.79
2018-09-18T05:32:43.218Z,65.14
2018-09-18T05:35:11.888Z,63.75
2018-09-18T05:37:40.527Z,62.12
2018-09-18T05:40:09.177Z,61.90
2018-09-18T05:42:37.832Z,61.64
2018-09-18T05:45:06.604Z,61.15
2018-09-18T05:47:35.217Z,59.30
2018-09-18T05:50:04.194Z,59.11
2018-09-18T05:52:32.826Z,58.89
2018-09-18T05:55:01.504Z,57.63
2018-09-18T05:57:30.155Z,57.20
2018-09-18T05:59:58.919Z,56.87
2018-09-18T06:02:27.619Z,57.52
2018-09-18T06:04:56.335Z,56.43
2018-09-18T06:07:24.987Z,55.12
2018-09-18T06:09:53.693Z,55.58
2018-09-18T06:12:22.424Z,55.04
2018-09-18T06:14:51.044Z,54.74
2018-09-18T06:17:19.690Z,54.05
2018-09-18T06:19:48.312Z,54.07
2018-09-18T06:22:16.964Z,51.71
2018-09-18T06:24:45.642Z,53.26
2018-09-18T06:27:14.287Z,53.58
2018-09-18T06:29:43.358Z,53.99
2018-09-18T06:32:11.973Z,52.69
2018-09-18T06:34:40.875Z,51.68
2018-09-18T06:37:09.937Z,50.36
2018-09-18T06:39:38.628Z,49.61
2018-09-18T06:42:07.444Z,50.40
2018-09-18T06:44:36.202Z,52.59
2018-09-18T06:47:05.135Z,52.46
2018-09-18T06:49:33.789Z,50.20
2018-09-18T06:52:03.309Z,50.56
2018-09-18T06:54:31.995Z,50.61
2018-09-18T06:57:00.807Z,49.51
2018-09-18T06:59:29.474Z,49.97
2018-09-18T07:01:58.131Z,47.25
2018-09-18T07:04:27.071Z,49.12
2018-09-18T07:06:55.843Z,46.82
2018-09-18T07:09:24.523Z,45.51
2018-09-18T07:11:53.152Z,43.42
2018-09-18T07:14:21.844Z,44.79
2018-09-18T07:16:50.694Z,45.25
2018-09-18T07:19:19.755Z,44.26
2018-09-18T07:21:48.404Z,43.10
2018-09-18T07:24:17.088Z,42.12
2018-09-18T07:26:45.836Z,43.81
2018-09-18T07:29:14.514Z,44.30
2018-09-18T07:31:43.166Z,45.74
2018-09-18T07:34:11.973Z,45.15
2018-09-18T07:36:40.646Z,45.29
2018-09-18T07:39:11.028Z,45.54
2018-09-18T07:41:39.647Z,44.73
2018-09-18T07:44:08.668Z,45.19
2018-09-18T07:46:37.294Z,44.10
2018-09-18T07:49:06.260Z,42.69
2018-09-18T07:51:35.847Z,42.32
2018-09-18T07:54:05.455Z,41.76
2018-09-18T07:56:34.114Z,41.28
2018-09-18T07:59:03.165Z,43.07
2018-09-18T08:01:33.309Z,43.07
2018-09-18T08:04:01.955Z,43.08
2018-09-18T08:06:30.644Z,43.76
2018-09-18T08:08:59.282Z,43.69
2018-09-18T08:11:27.947Z,42.44
2018-09-18T08:13:56.658Z,43.05
2018-09-18T08:16:25.366Z,42.77
2018-09-18T08:18:54.186Z,41.81
2018-09-18T08:21:22.747Z,42.97
2018-09-18T08:23:51.435Z,42.51
2018-09-18T08:26:20.079Z,42.78
2018-09-18T08:28:48.764Z,41.77
2018-09-18T08:31:17.397Z,40.91
2018-09-18T08:33:46.046Z,40.36
2018-09-18T08:36:14.699Z,40.59
2018-09-18T08:38:43.403Z,40.43
2018-09-18T08:41:12.111Z,41.85
2018-09-18T08:43:40.795Z,41.44
2018-09-18T08:46:09.714Z,41.59
2018-09-18T08:48:42.439Z,41.50
2018-09-18T08:51:11.276Z,41.48
2018-09-18T08:53:40.029Z,41.04
2018-09-18T08:56:08.691Z,40.53
2018-09-18T08:58:37.411Z,39.86
2018-09-18T09:01:06.176Z,38.70
2018-09-18T09:03:34.807Z,39.74
2018-09-18T09:06:03.559Z,40.37
2018-09-18T09:08:32.607Z,39.65
2018-09-18T09:11:01.908Z,39.19
2018-09-18T09:13:30.588Z,39.37
2018-09-18T09:15:59.267Z,39.32
2018-09-18T09:18:28.005Z,39.88
2018-09-18T09:20:56.758Z,38.38
2018-09-18T09:23:25.428Z,37.61
2018-09-18T09:25:54.101Z,36.20
2018-09-18T09:28:22.793Z,37.25
2018-09-18T09:30:51.440Z,37.67
2018-09-18T09:33:20.433Z,36.20
2018-09-18T09:35:49.155Z,37.38
2018-09-18T09:38:17.846Z,36.35
2018-09-18T09:40:46.596Z,37.93
2018-09-18T09:43:15.291Z,38.04
2018-09-18T09:45:44.157Z,38.20
2018-09-18T09:48:12.904Z,37.73
2018-09-18T09:50:41.596Z,36.67
2018-09-18T09:53:10.290Z,37.62
2018-09-18T09:55:39.003Z,35.95
2018-09-18T09:58:07.739Z,37.46
2018-09-18T10:00:45.751Z,36.01
2018-09-18T10:03:15.059Z,37.51
2018-09-18T10:05:43.763Z,35.49
2018-09-18T10:08:12.542Z,36.90
2018-09-18T10:10:41.399Z,34.38
2018-09-18T10:13:10.001Z,33.44
2018-09-18T10:15:38.699Z,34.21
2018-09-18T10:18:07.353Z,35.21
2018-09-18T10:20:36.029Z,33.63
2018-09-18T10:23:04.863Z,34.07
2018-09-18T10:25:33.551Z,34.22
2018-09-18T10:28:02.280Z,34.94
2018-09-18T10:30:31.354Z,35.15
2018-09-18T10:33:00.049Z,34.38
2018-09-18T10:35:28.699Z,34.04
2018-09-18T10:37:57.402Z,32.91
2018-09-18T10:40:26.136Z,33.98
2018-09-18T10:42:54.827Z,33.33
2018-09-18T10:45:23.611Z,33.44
2018-09-18T10:47:52.738Z,32.55
2018-09-18T10:50:21.439Z,31.08
2018-09-18T10:52:50.140Z,30.67
2018-09-18T10:55:18.834Z,32.01
2018-09-18T10:57:47.585Z,31.25
2018-09-18T11:00:16.251Z,29.74
2018-09-18T11:02:45.190Z,29.85
2018-09-18T11:05:13.906Z,29.06
2018-09-18T11:07:42.688Z,29.07
2018-09-18T11:10:11.452Z,29.33
2018-09-18T11:12:40.070Z,28.24
2018-09-18T11:15:08.748Z,27.95
2018-09-18T11:17:37.423Z,29.47
2018-09-18T11:20:06.279Z,29.71
2018-09-18T11:22:35.336Z,29.50
2018-09-18T11:25:04.081Z,28.54
2018-09-18T11:27:32.807Z,28.93
2018-09-18T11:30:01.775Z,27.39
2018-09-18T11:32:30.490Z,27.70
2018-09-18T11:34:59.178Z,27.27
2018-09-18T11:37:27.869Z,27.48
2018-09-18T11:39:56.523Z,28.64
2018-09-18T11:42:25.207Z,29.33
2018-09-18T11:44:53.891Z,29.09
2018-09-18T11:47:22.572Z,28.43
2018-09-18T11:49:51.246Z,27.36
2018-09-18T11:52:19.920Z,28.87
2018-09-18T11:54:48.602Z,26.53
2018-09-18T11:57:17.332Z,25.84
2018-09-18T11:59:46.013Z,27.97
2018-09-18T12:02:14.733Z,28.80
2018-09-18T12:04:43.538Z,29.39
2018-09-18T12:10:32.640Z,30.05
2018-09-18T12:13:01.579Z,30.04
2018-09-18T12:15:30.240Z,31.43
2018-09-18T12:17:58.887Z,29.80
2018-09-18T12:20:27.543Z,29.80
2018-09-18T12:22:56.222Z,31.16
2018-09-18T12:25:24.900Z,31.85
2018-09-18T12:27:53.679Z,31.69
2018-09-18T12:30:22.432Z,31.44
2018-09-18T12:32:51.088Z,30.21
2018-09-18T12:35:19.777Z,29.46
2018-09-18T12:37:49.342Z,28.92
2018-09-18T12:40:18.013Z,30.37
2018-09-18T12:42:46.682Z,29.26
2018-09-18T12:45:15.354Z,29.69
2018-09-18T12:47:44.006Z,28.81
2018-09-18T12:50:12.956Z,27.57
2018-09-18T12:52:41.385Z,27.85
2018-09-18T12:55:10.009Z,29.28
2018-09-18T12:57:38.848Z,28.64
2018-09-18T13:00:09.110Z,27.99
2018-09-18T13:02:37.811Z,28.22
2018-09-18T13:05:06.537Z,28.41
2018-09-18T13:07:35.194Z,29.80
2018-09-18T13:10:04.011Z,30.33
2018-09-18T13:12:32.609Z,31.46
2018-09-18T13:15:01.271Z,31.08
2018-09-18T13:17:29.948Z,31.54
2018-09-18T13:19:58.638Z,32.31
2018-09-18T13:22:27.283Z,31.57
2018-09-18T13:24:55.978Z,33.08
2018-09-18T13:27:24.596Z,32.96
2018-09-18T13:29:53.248Z,33.17
2018-09-18T13:32:21.899Z,33.49
2018-09-18T13:34:50.549Z,34.22
2018-09-18T13:37:19.277Z,34.69
2018-09-18T13:39:47.957Z,34.54
2018-09-18T13:42:16.707Z,35.18
2018-09-18T13:44:45.367Z,34.70
2018-09-18T13:47:14.018Z,34.96
2018-09-18T13:49:42.716Z,34.63
2018-09-18T13:52:11.407Z,34.85
2018-09-18T13:54:40.104Z,35.06
2018-09-18T13:57:08.831Z,34.79
2018-09-18T13:59:37.585Z,35.37
2018-09-18T14:02:06.281Z,35.09
2018-09-18T14:04:34.984Z,34.72
2018-09-18T14:07:03.704Z,35.93
2018-09-18T14:09:32.472Z,34.36
2018-09-18T14:12:01.139Z,34.09
2018-09-18T14:14:29.774Z,35.18
2018-09-18T14:16:58.436Z,34.79
2018-09-18T14:19:27.117Z,34.26
2018-09-18T14:21:55.787Z,34.35
2018-09-18T14:24:24.483Z,34.69
2018-09-18T14:26:53.146Z,35.12
2018-09-18T14:29:21.811Z,34.79
2018-09-18T14:31:50.543Z,34.22
2018-09-18T14:34:19.231Z,35.37
2018-09-18T14:36:47.907Z,35.17
2018-09-18T14:39:16.608Z,36.29
2018-09-18T14:41:45.248Z,36.35
2018-09-18T14:44:13.883Z,36.20
2018-09-18T14:46:42.611Z,35.91
2018-09-18T14:49:11.294Z,37.02
2018-09-18T14:51:39.958Z,37.05
2018-09-18T14:54:08.774Z,36.90
2018-09-18T14:56:37.448Z,37.21
2018-09-18T14:59:06.248Z,37.24
2018-09-18T15:01:34.911Z,36.38
2018-09-18T15:04:03.590Z,36.67
2018-09-18T15:06:32.222Z,36.49
2018-09-18T15:09:00.875Z,36.50
2018-09-18T15:11:29.571Z,36.41
2018-09-18T15:13:58.193Z,36.36
2018-09-18T15:16:26.887Z,36.51
2018-09-18T15:18:55.578Z,36.64
2018-09-18T15:21:24.311Z,36.44
2018-09-18T15:23:52.975Z,36.63
2018-09-18T15:26:21.680Z,37.04
2018-09-18T15:28:50.367Z,37.28
2018-09-18T15:31:19.087Z,37.70
2018-09-18T15:33:47.928Z,37.83
2018-09-18T15:36:16.755Z,38.08
2018-09-18T15:38:45.482Z,37.94
2018-09-18T15:41:14.181Z,38.05
2018-09-18T15:43:42.862Z,38.21
2018-09-18T15:46:11.613Z,38.35
2018-09-18T15:48:40.307Z,38.74
2018-09-18T15:51:09.027Z,38.75
2018-09-18T15:53:37.674Z,39.26
2018-09-18T15:56:06.436Z,39.57
2018-09-18T15:58:35.063Z,39.86
2018-09-18T16:01:03.793Z,40.03
2018-09-18T16:03:33.228Z,40.41
2018-09-18T16:06:02.337Z,40.45
2018-09-18T16:12:18.187Z,40.86
2018-09-18T16:14:47.929Z,41.15
2018-09-18T16:17:27.451Z,41.49
2018-09-18T16:19:56.924Z,41.88
2018-09-18T16:22:26.168Z,41.99
2018-09-18T16:24:58.020Z,41.46
2018-09-18T16:27:27.193Z,41.42
2018-09-18T16:30:15.013Z,42.01
2018-09-18T16:32:46.633Z,42.40
2018-09-18T16:48:59.579Z,44.51
2018-09-18T16:51:37.148Z,44.85
2018-09-18T16:54:06.527Z,45.31
2018-09-18T16:56:35.584Z,45.49
2018-09-18T16:59:04.891Z,46.18
2018-09-18T17:01:37.104Z,46.65
2018-09-18T17:04:06.457Z,47.43
2018-09-18T17:06:35.293Z,48.66
2018-09-18T17:09:05.634Z,49.45
2018-09-18T17:11:35.686Z,49.60
2018-09-18T17:14:04.718Z,49.91
2018-09-18T17:16:33.792Z,49.48
2018-09-18T17:19:02.987Z,49.75
2018-09-18T17:21:32.035Z,50.03
2018-09-18T17:24:01.123Z,50.21
2018-09-18T17:26:30.159Z,51.14
2018-09-18T17:28:59.725Z,50.83
2018-09-18T17:31:29.796Z,51.43
2018-09-18T17:33:58.682Z,51.29
2018-09-18T17:36:28.035Z,51.65
2018-09-18T17:38:57.684Z,51.96
2018-09-18T17:41:27.018Z,52.45
2018-09-18T17:43:56.950Z,52.88
2018-09-18T17:46:26.635Z,52.57
2018-09-18T17:48:55.512Z,53.02
2018-09-18T17:51:24.420Z,52.97
2018-09-18T17:53:53.497Z,53.69
2018-09-18T17:56:23.125Z,53.89
2018-09-18T17:58:52.317Z,54.26
2018-09-18T18:01:21.552Z,53.82
2018-09-18T18:03:50.444Z,54.62
2018-09-18T18:06:19.642Z,54.73
2018-09-18T18:08:48.651Z,55.43
2018-09-18T18:11:18.362Z,55.68
2018-09-18T18:13:47.169Z,56.05
2018-09-18T18:16:16.198Z,56.16
2018-09-18T18:18:45.167Z,55.60
2018-09-18T18:21:13.995Z,56.57
2018-09-18T18:23:42.974Z,56.28
2018-09-18T18:26:12.599Z,56.55
2018-09-18T18:28:41.602Z,56.41
2018-09-18T18:31:10.837Z,57.31
2018-09-18T18:33:39.638Z,56.89
2018-09-18T18:36:08.621Z,57.31
2018-09-18T18:38:37.625Z,57.49
2018-09-18T18:41:06.557Z,57.96
2018-09-18T18:43:35.543Z,58.29
2018-09-18T18:46:05.372Z,58.11
2018-09-18T18:48:34.308Z,58.50
2018-09-18T18:51:03.180Z,58.79
2018-09-18T18:53:32.013Z,59.08
2018-09-18T18:56:00.711Z,58.90
2018-09-18T18:58:29.419Z,58.18
2018-09-18T19:00:58.061Z,58.38
2018-09-18T19:03:26.775Z,58.92
2018-09-18T19:05:55.434Z,58.63
2018-09-18T19:08:24.067Z,58.59
2018-09-18T19:10:52.747Z,58.86
2018-09-18T19:13:21.436Z,59.00
2018-09-18T19:15:50.105Z,59.74
2018-09-18T19:18:18.782Z,59.70
2018-09-18T19:20:47.455Z,59.99
2018-09-18T19:23:16.158Z,59.70
2018-09-18T19:25:44.826Z,60.63
2018-09-18T19:28:13.508Z,60.88
2018-09-18T19:30:42.145Z,61.22
2018-09-18T19:33:10.922Z,60.73
2018-09-18T19:35:39.537Z,61.33
2018-09-18T19:38:08.184Z,61.42
2018-09-18T19:40:36.849Z,61.54
2018-09-18T19:43:05.527Z,61.38
2018-09-18T19:45:34.184Z,61.97
2018-09-18T19:48:02.945Z,61.93
2018-09-18T19:50:31.590Z,61.96
2018-09-18T19:53:00.222Z,62.51
2018-09-18T19:55:28.941Z,62.42
2018-09-18T19:57:57.627Z,62.28
2018-09-18T20:00:26.352Z,62.19
2018-09-18T20:02:55.133Z,62.81
2018-09-18T20:05:23.809Z,63.36
2018-09-18T20:07:52.533Z,62.71
2018-09-18T20:10:21.295Z,62.90
2018-09-18T20:12:50.139Z,63.09
2018-09-18T20:15:18.831Z,63.34
2018-09-18T20:17:47.441Z,63.64
2018-09-18T20:20:16.159Z,63.67
2018-09-18T20:22:44.860Z,64.05
2018-09-18T20:25:13.544Z,64.77
2018-09-18T20:27:42.472Z,64.56
2018-09-18T20:30:12.569Z,65.23
2018-09-18T20:32:41.310Z,64.83
2018-09-18T20:35:09.947Z,65.68
2018-09-18T20:37:38.759Z,65.45
2018-09-18T20:40:07.412Z,65.43
2018-09-18T20:42:36.597Z,66.05
2018-09-18T20:45:05.388Z,65.56
2018-09-18T20:47:34.208Z,65.94
2018-09-18T20:50:03.495Z,66.86
2018-09-18T20:52:32.291Z,66.46
2018-09-18T20:55:01.006Z,67.43
2018-09-18T20:57:29.669Z,67.27
2018-09-18T20:59:58.367Z,66.62
2018-09-18T21:02:27.041Z,66.93
2018-09-18T21:04:55.749Z,67.27
2018-09-18T21:07:24.414Z,67.62
2018-09-18T21:09:53.072Z,67.94
2018-09-18T21:12:21.724Z,68.02
2018-09-18T21:14:50.387Z,68.60
2018-09-18T21:17:33.772Z,68.80
2018-09-18T21:20:02.417Z,69.04
2018-09-18T21:22:31.042Z,68.64
2018-09-18T21:25:12.024Z,69.09
2018-09-18T21:27:41.111Z,68.79
2018-09-18T21:30:13.729Z,69.49
2018-09-18T21:32:42.392Z,69.00
2018-09-18T21:35:11.114Z,69.20
2018-09-18T21:37:40.088Z,69.41
2018-09-18T21:40:08.815Z,69.29
2018-09-18T21:42:37.483Z,69.26
2018-09-18T21:45:06.170Z,69.61
2018-09-18T21:47:34.906Z,69.72
2018-09-18T21:50:03.610Z,70.14
2018-09-18T21:52:32.273Z,69.92
2018-09-18T21:55:00.940Z,69.86
2018-09-18T21:57:29.596Z,69.91
2018-09-18T21:59:58.282Z,69.97
2018-09-18T22:02:26.950Z,70.59
2018-09-18T22:04:55.601Z,70.29
2018-09-18T22:07:24.283Z,70.52
2018-09-18T22:09:52.938Z,70.98
2018-09-18T22:12:21.653Z,71.16
2018-09-18T22:14:50.304Z,71.06
2018-09-18T22:17:18.988Z,70.74
2018-09-18T22:19:47.660Z,70.93
2018-09-18T22:22:16.335Z,71.55
2018-09-18T22:24:45.081Z,71.26
2018-09-18T22:27:13.725Z,71.65
2018-09-18T22:29:42.421Z,71.67
2018-09-18T22:32:11.122Z,71.46
2018-09-18T22:34:39.820Z,72.09
2018-09-18T22:37:08.503Z,71.32
2018-09-18T22:39:37.213Z,71.42
2018-09-18T22:42:05.877Z,71.57
2018-09-18T22:44:34.534Z,71.37
2018-09-18T22:47:03.223Z,71.48
2018-09-18T22:49:31.863Z,71.49
2018-09-18T22:52:00.555Z,71.74
2018-09-18T22:54:29.266Z,71.15
2018-09-18T22:56:57.875Z,71.05
2018-09-18T22:59:26.584Z,71.67
2018-09-18T23:01:55.283Z,71.28
2018-09-18T23:04:33.055Z,71.64
2018-09-18T23:07:18.488Z,71.26
2018-09-18T23:10:05.349Z,71.59
2018-09-18T23:12:57.355Z,71.37
2018-09-18T23:17:10.403Z,72.09
2018-09-18T23:19:45.955Z,71.98
2018-09-18T23:22:14.640Z,71.97
2018-09-18T23:24:43.287Z,71.25
2018-09-18T23:27:11.939Z,72.03
2018-09-18T23:29:40.665Z,71.66
2018-09-18T23:32:09.313Z,71.62
2018-09-18T23:34:37.959Z,71.50
2018-09-18T23:52:03.466Z,72.12
2018-09-18T23:54:32.116Z,72.18
2018-09-18T23:57:00.750Z,72.49
2018-09-18T23:59:29.425Z,72.07
